sensor_id;sensor_type;location;lat;lon;timestamp;pressure;altitude;pressure_sealevel;temperature;humidity
68077;BME280;54866;53.458;14.540;2023-02-20T00:02:16;101026.27;;;0.40;89.72
68077;BME280;54866;53.458;14.540;2023-02-20T00:04:47;101031.16;;;0.40;90.36
68077;BME280;54866;53.458;14.540;2023-02-20T00:07:16;101035.89;;;0.38;90.16
68077;BME280;54866;53.458;14.540;2023-02-20T00:09:46;101030.69;;;0.38;90.57
68077;BME280;54866;53.458;14.540;2023-02-20T00:12:15;101027.58;;;0.38;90.66
68077;BME280;54866;53.458;14.540;2023-02-20T00:14:45;101024.42;;;0.39;90.95
68077;BME280;54866;53.458;14.540;2023-02-20T00:17:15;101016.58;;;0.40;91.19
68077;BME280;54866;53.458;14.540;2023-02-20T00:19:45;101012.90;;;0.41;91.31
68077;BME280;54866;53.458;14.540;2023-02-20T00:22:15;101009.73;;;0.43;91.39
68077;BME280;54866;53.458;14.540;2023-02-20T00:24:44;101008.13;;;0.44;91.54
68077;BME280;54866;53.458;14.540;2023-02-20T00:27:14;101000.30;;;0.45;91.40
68077;BME280;54866;53.458;14.540;2023-02-20T00:29:44;100997.53;;;0.45;91.51
68077;BME280;54866;53.458;14.540;2023-02-20T00:32:14;100994.06;;;0.45;91.70
68077;BME280;54866;53.458;14.540;2023-02-20T00:34:44;100997.38;;;0.44;91.85
68077;BME280;54866;53.458;14.540;2023-02-20T00:37:13;100995.47;;;0.44;92.04
68077;BME280;54866;53.458;14.540;2023-02-20T00:39:43;100992.33;;;0.45;91.99
68077;BME280;54866;53.458;14.540;2023-02-20T00:42:12;100993.38;;;0.45;92.25
68077;BME280;54866;53.458;14.540;2023-02-20T00:44:42;100991.84;;;0.44;92.43
68077;BME280;54866;53.458;14.540;2023-02-20T00:47:11;100985.09;;;0.44;92.73
68077;BME280;54866;53.458;14.540;2023-02-20T00:49:41;100974.14;;;0.44;93.10
68077;BME280;54866;53.458;14.540;2023-02-20T00:52:10;100970.45;;;0.46;93.59
68077;BME280;54866;53.458;14.540;2023-02-20T00:54:40;100962.28;;;0.47;93.92
68077;BME280;54866;53.458;14.540;2023-02-20T00:57:10;100958.64;;;0.47;93.80
68077;BME280;54866;53.458;14.540;2023-02-20T00:59:39;100965.55;;;0.47;94.24
68077;BME280;54866;53.458;14.540;2023-02-20T01:02:09;100955.44;;;0.49;94.46
68077;BME280;54866;53.458;14.540;2023-02-20T01:04:39;100951.96;;;0.49;94.64
68077;BME280;54866;53.458;14.540;2023-02-20T01:07:08;100959.86;;;0.52;94.73
68077;BME280;54866;53.458;14.540;2023-02-20T01:09:38;100955.13;;;0.54;94.59
68077;BME280;54866;53.458;14.540;2023-02-20T01:12:07;100953.61;;;0.58;94.75
68077;BME280;54866;53.458;14.540;2023-02-20T01:14:37;100948.83;;;0.61;94.89
68077;BME280;54866;53.458;14.540;2023-02-20T01:17:08;100942.48;;;0.64;95.13
68077;BME280;54866;53.458;14.540;2023-02-20T01:19:40;100927.80;;;0.67;95.07
68077;BME280;54866;53.458;14.540;2023-02-20T01:22:10;100924.42;;;0.70;95.16
68077;BME280;54866;53.458;14.540;2023-02-20T01:24:39;100912.70;;;0.73;95.00
68077;BME280;54866;53.458;14.540;2023-02-20T01:27:10;100908.38;;;0.72;95.01
68077;BME280;54866;53.458;14.540;2023-02-20T01:29:40;100907.60;;;0.75;95.04
68077;BME280;54866;53.458;14.540;2023-02-20T01:32:11;100902.32;;;0.77;95.00
68077;BME280;54866;53.458;14.540;2023-02-20T01:34:41;100899.12;;;0.79;95.28
68077;BME280;54866;53.458;14.540;2023-02-20T01:37:13;100898.70;;;0.81;95.04
68077;BME280;54866;53.458;14.540;2023-02-20T01:39:45;100895.30;;;0.84;95.14
68077;BME280;54866;53.458;14.540;2023-02-20T01:42:17;100895.02;;;0.88;95.35
68077;BME280;54866;53.458;14.540;2023-02-20T01:44:49;100896.30;;;0.91;95.16
68077;BME280;54866;53.458;14.540;2023-02-20T01:47:20;100893.23;;;0.94;95.28
68077;BME280;54866;53.458;14.540;2023-02-20T01:49:53;100886.24;;;1.00;95.55
68077;BME280;54866;53.458;14.540;2023-02-20T01:52:28;100887.84;;;1.04;95.72
68077;BME280;54866;53.458;14.540;2023-02-20T01:55:00;100876.70;;;1.10;95.75
68077;BME280;54866;53.458;14.540;2023-02-20T01:57:33;100871.71;;;1.13;95.64
68077;BME280;54866;53.458;14.540;2023-02-20T02:00:08;100870.16;;;1.18;95.82
68077;BME280;54866;53.458;14.540;2023-02-20T02:02:45;100868.52;;;1.20;95.86
68077;BME280;54866;53.458;14.540;2023-02-20T02:05:18;100861.64;;;1.24;95.94
68077;BME280;54866;53.458;14.540;2023-02-20T02:07:48;100862.64;;;1.25;95.75
68077;BME280;54866;53.458;14.540;2023-02-20T02:10:21;100855.52;;;1.25;95.65
68077;BME280;54866;53.458;14.540;2023-02-20T02:12:54;100850.98;;;1.25;96.07
68077;BME280;54866;53.458;14.540;2023-02-20T02:15:25;100841.92;;;1.26;96.26
68077;BME280;54866;53.458;14.540;2023-02-20T02:18:05;100837.15;;;1.29;96.56
68077;BME280;54866;53.458;14.540;2023-02-20T02:32:45;100816.17;;;1.41;96.78
68077;BME280;54866;53.458;14.540;2023-02-20T02:35:34;100806.48;;;1.45;96.90
68077;BME280;54866;53.458;14.540;2023-02-20T02:38:17;100804.77;;;1.49;96.79
68077;BME280;54866;53.458;14.540;2023-02-20T02:40:53;100796.12;;;1.52;96.73
68077;BME280;54866;53.458;14.540;2023-02-20T02:43:31;100796.08;;;1.53;96.78
68077;BME280;54866;53.458;14.540;2023-02-20T02:46:07;100786.10;;;1.55;96.82
68077;BME280;54866;53.458;14.540;2023-02-20T02:48:43;100788.64;;;1.58;96.82
68077;BME280;54866;53.458;14.540;2023-02-20T02:51:19;100780.04;;;1.60;96.62
68077;BME280;54866;53.458;14.540;2023-02-20T02:54:08;100779.81;;;1.61;96.60
68077;BME280;54866;53.458;14.540;2023-02-20T02:56:41;100771.92;;;1.63;96.74
68077;BME280;54866;53.458;14.540;2023-02-20T02:59:15;100763.34;;;1.65;96.50
68077;BME280;54866;53.458;14.540;2023-02-20T03:01:48;100770.89;;;1.67;96.53
68077;BME280;54866;53.458;14.540;2023-02-20T03:04:19;100763.00;;;1.68;96.54
68077;BME280;54866;53.458;14.540;2023-02-20T03:06:54;100761.60;;;1.69;96.65
68077;BME280;54866;53.458;14.540;2023-02-20T03:09:28;100754.80;;;1.69;96.67
68077;BME280;54866;53.458;14.540;2023-02-20T03:12:00;100759.77;;;1.71;96.47
68077;BME280;54866;53.458;14.540;2023-02-20T03:14:36;100754.00;;;1.72;96.71
68077;BME280;54866;53.458;14.540;2023-02-20T03:17:30;100752.78;;;1.72;96.92
68077;BME280;54866;53.458;14.540;2023-02-20T03:20:02;100747.46;;;1.70;97.26
68077;BME280;54866;53.458;14.540;2023-02-20T03:22:35;100738.78;;;1.70;97.79
68077;BME280;54866;53.458;14.540;2023-02-20T03:25:10;100719.52;;;1.70;98.19
68077;BME280;54866;53.458;14.540;2023-02-20T03:27:43;100708.08;;;1.69;98.47
68077;BME280;54866;53.458;14.540;2023-02-20T03:30:20;100702.80;;;1.71;98.83
68077;BME280;54866;53.458;14.540;2023-02-20T03:32:54;100695.98;;;1.72;98.59
68077;BME280;54866;53.458;14.540;2023-02-20T03:35:44;100692.73;;;1.76;98.84
68077;BME280;54866;53.458;14.540;2023-02-20T03:38:36;100692.44;;;1.78;98.98
68077;BME280;54866;53.458;14.540;2023-02-20T03:41:26;100697.56;;;1.80;99.07
68077;BME280;54866;53.458;14.540;2023-02-20T03:44:16;100695.83;;;1.84;99.17
68077;BME280;54866;53.458;14.540;2023-02-20T03:46:47;100695.35;;;1.87;99.34
68077;BME280;54866;53.458;14.540;2023-02-20T03:49:20;100686.10;;;1.88;99.40
68077;BME280;54866;53.458;14.540;2023-02-20T03:51:51;100689.31;;;1.91;99.73
68077;BME280;54866;53.458;14.540;2023-02-20T03:54:21;100690.86;;;1.91;99.84
68077;BME280;54866;53.458;14.540;2023-02-20T03:56:54;100687.38;;;1.92;99.99
68077;BME280;54866;53.458;14.540;2023-02-20T03:59:27;100679.55;;;1.91;100.00
68077;BME280;54866;53.458;14.540;2023-02-20T04:02:01;100681.55;;;1.93;100.00
68077;BME280;54866;53.458;14.540;2023-02-20T04:04:35;100678.80;;;1.93;100.00
68077;BME280;54866;53.458;14.540;2023-02-20T04:07:11;100675.98;;;1.94;100.00
68077;BME280;54866;53.458;14.540;2023-02-20T04:09:46;100676.84;;;1.94;100.00
68077;BME280;54866;53.458;14.540;2023-02-20T04:12:21;100669.15;;;1.95;100.00
68077;BME280;54866;53.458;14.540;2023-02-20T04:14:52;100668.08;;;1.96;100.00
68077;BME280;54866;53.458;14.540;2023-02-20T04:17:26;100672.11;;;1.95;100.00
68077;BME280;54866;53.458;14.540;2023-02-20T04:19:58;100667.64;;;1.94;100.00
68077;BME280;54866;53.458;14.540;2023-02-20T04:22:32;100670.77;;;1.94;100.00
68077;BME280;54866;53.458;14.540;2023-02-20T04:25:11;100657.77;;;1.92;100.00
68077;BME280;54866;53.458;14.540;2023-02-20T04:27:43;100648.49;;;1.94;100.00
68077;BME280;54866;53.458;14.540;2023-02-20T04:30:13;100633.65;;;1.96;100.00
68077;BME280;54866;53.458;14.540;2023-02-20T04:32:43;100633.13;;;1.96;100.00
68077;BME280;54866;53.458;14.540;2023-02-20T04:35:17;100627.21;;;1.96;100.00
68077;BME280;54866;53.458;14.540;2023-02-20T04:37:48;100627.52;;;1.97;100.00
68077;BME280;54866;53.458;14.540;2023-02-20T04:40:20;100616.58;;;1.97;100.00
68077;BME280;54866;53.458;14.540;2023-02-20T04:42:50;100609.15;;;1.96;100.00
68077;BME280;54866;53.458;14.540;2023-02-20T04:45:19;100607.91;;;1.97;100.00
68077;BME280;54866;53.458;14.540;2023-02-20T04:47:49;100607.88;;;1.98;100.00
68077;BME280;54866;53.458;14.540;2023-02-20T04:50:22;100606.00;;;1.97;100.00
68077;BME280;54866;53.458;14.540;2023-02-20T04:52:53;100606.38;;;1.96;100.00
68077;BME280;54866;53.458;14.540;2023-02-20T04:55:23;100594.48;;;1.94;100.00
68077;BME280;54866;53.458;14.540;2023-02-20T04:57:52;100596.35;;;1.95;100.00
68077;BME280;54866;53.458;14.540;2023-02-20T05:00:24;100588.67;;;1.96;100.00
68077;BME280;54866;53.458;14.540;2023-02-20T05:02:54;100585.21;;;1.95;100.00
68077;BME280;54866;53.458;14.540;2023-02-20T05:05:26;100578.03;;;1.97;100.00
68077;BME280;54866;53.458;14.540;2023-02-20T05:07:59;100573.65;;;1.97;100.00
68077;BME280;54866;53.458;14.540;2023-02-20T05:10:29;100567.75;;;1.97;100.00
68077;BME280;54866;53.458;14.540;2023-02-20T05:13:00;100566.44;;;1.99;100.00
68077;BME280;54866;53.458;14.540;2023-02-20T05:15:30;100547.33;;;1.99;100.00
68077;BME280;54866;53.458;14.540;2023-02-20T05:18:00;100546.20;;;2.01;100.00
68077;BME280;54866;53.458;14.540;2023-02-20T05:20:30;100536.45;;;2.01;100.00
68077;BME280;54866;53.458;14.540;2023-02-20T05:23:17;100533.98;;;2.02;100.00
68077;BME280;54866;53.458;14.540;2023-02-20T05:25:46;100523.73;;;2.02;100.00
68077;BME280;54866;53.458;14.540;2023-02-20T05:28:16;100514.48;;;2.03;100.00
68077;BME280;54866;53.458;14.540;2023-02-20T05:30:45;100507.80;;;2.05;100.00
68077;BME280;54866;53.458;14.540;2023-02-20T05:33:15;100504.32;;;2.05;100.00
68077;BME280;54866;53.458;14.540;2023-02-20T05:35:44;100499.61;;;2.05;100.00
68077;BME280;54866;53.458;14.540;2023-02-20T05:38:18;100499.95;;;2.05;100.00
68077;BME280;54866;53.458;14.540;2023-02-20T05:40:46;100492.95;;;2.06;100.00
68077;BME280;54866;53.458;14.540;2023-02-20T05:43:16;100488.41;;;2.07;100.00
68077;BME280;54866;53.458;14.540;2023-02-20T05:45:46;100478.60;;;2.09;100.00
68077;BME280;54866;53.458;14.540;2023-02-20T05:48:16;100467.47;;;2.09;100.00
68077;BME280;54866;53.458;14.540;2023-02-20T05:50:46;100459.95;;;2.10;100.00
68077;BME280;54866;53.458;14.540;2023-02-20T05:53:17;100463.65;;;2.13;100.00
68077;BME280;54866;53.458;14.540;2023-02-20T05:55:47;100440.27;;;2.15;100.00
68077;BME280;54866;53.458;14.540;2023-02-20T05:58:17;100449.31;;;2.18;100.00
68077;BME280;54866;53.458;14.540;2023-02-20T06:00:46;100447.94;;;2.18;100.00
68077;BME280;54866;53.458;14.540;2023-02-20T06:03:17;100434.14;;;2.19;100.00
68077;BME280;54866;53.458;14.540;2023-02-20T06:05:46;100433.92;;;2.20;100.00
68077;BME280;54866;53.458;14.540;2023-02-20T06:08:16;100432.57;;;2.27;100.00
68077;BME280;54866;53.458;14.540;2023-02-20T06:10:45;100418.36;;;2.30;100.00
68077;BME280;54866;53.458;14.540;2023-02-20T06:13:15;100416.34;;;2.32;100.00
68077;BME280;54866;53.458;14.540;2023-02-20T06:15:45;100410.75;;;2.32;100.00
68077;BME280;54866;53.458;14.540;2023-02-20T06:18:14;100408.31;;;2.36;100.00
68077;BME280;54866;53.458;14.540;2023-02-20T06:20:44;100396.29;;;2.39;100.00
68077;BME280;54866;53.458;14.540;2023-02-20T06:23:13;100395.13;;;2.42;100.00
68077;BME280;54866;53.458;14.540;2023-02-20T06:25:43;100401.13;;;2.44;100.00
68077;BME280;54866;53.458;14.540;2023-02-20T06:28:12;100395.02;;;2.45;100.00
68077;BME280;54866;53.458;14.540;2023-02-20T06:30:42;100392.28;;;2.47;100.00
68077;BME280;54866;53.458;14.540;2023-02-20T06:33:11;100392.84;;;2.50;100.00
68077;BME280;54866;53.458;14.540;2023-02-20T06:35:41;100390.58;;;2.53;100.00
68077;BME280;54866;53.458;14.540;2023-02-20T06:38:11;100396.85;;;2.56;100.00
68077;BME280;54866;53.458;14.540;2023-02-20T06:40:40;100393.98;;;2.62;100.00
68077;BME280;54866;53.458;14.540;2023-02-20T06:43:10;100387.73;;;2.65;100.00
68077;BME280;54866;53.458;14.540;2023-02-20T06:45:39;100385.67;;;2.68;100.00
68077;BME280;54866;53.458;14.540;2023-02-20T06:48:09;100393.36;;;2.74;100.00
68077;BME280;54866;53.458;14.540;2023-02-20T06:50:39;100398.13;;;2.76;100.00
68077;BME280;54866;53.458;14.540;2023-02-20T06:53:09;100389.67;;;2.78;100.00
68077;BME280;54866;53.458;14.540;2023-02-20T06:55:38;100381.73;;;2.81;100.00
68077;BME280;54866;53.458;14.540;2023-02-20T06:58:08;100359.74;;;2.82;100.00
68077;BME280;54866;53.458;14.540;2023-02-20T07:00:37;100374.01;;;2.85;100.00
68077;BME280;54866;53.458;14.540;2023-02-20T07:03:07;100368.12;;;2.88;100.00
68077;BME280;54866;53.458;14.540;2023-02-20T07:05:37;100366.30;;;2.92;100.00
68077;BME280;54866;53.458;14.540;2023-02-20T07:08:06;100362.20;;;2.98;100.00
68077;BME280;54866;53.458;14.540;2023-02-20T07:10:37;100349.88;;;3.04;100.00
68077;BME280;54866;53.458;14.540;2023-02-20T07:13:06;100348.59;;;3.08;100.00
68077;BME280;54866;53.458;14.540;2023-02-20T07:15:36;100338.74;;;3.14;100.00
68077;BME280;54866;53.458;14.540;2023-02-20T07:18:06;100349.15;;;3.18;100.00
68077;BME280;54866;53.458;14.540;2023-02-20T07:20:35;100336.90;;;3.22;100.00
68077;BME280;54866;53.458;14.540;2023-02-20T07:23:05;100328.14;;;3.26;100.00
68077;BME280;54866;53.458;14.540;2023-02-20T07:25:34;100297.67;;;3.33;100.00
68077;BME280;54866;53.458;14.540;2023-02-20T07:28:04;100294.38;;;3.36;100.00
68077;BME280;54866;53.458;14.540;2023-02-20T07:30:35;100304.66;;;3.39;100.00
68077;BME280;54866;53.458;14.540;2023-02-20T07:33:05;100288.34;;;3.44;100.00
68077;BME280;54866;53.458;14.540;2023-02-20T07:35:34;100279.58;;;3.49;100.00
68077;BME280;54866;53.458;14.540;2023-02-20T07:38:04;100277.29;;;3.52;100.00
68077;BME280;54866;53.458;14.540;2023-02-20T07:40:33;100284.63;;;3.55;100.00
68077;BME280;54866;53.458;14.540;2023-02-20T07:43:03;100252.17;;;3.59;100.00
68077;BME280;54866;53.458;14.540;2023-02-20T07:45:33;100254.46;;;3.64;100.00
68077;BME280;54866;53.458;14.540;2023-02-20T07:48:02;100234.02;;;3.69;100.00
68077;BME280;54866;53.458;14.540;2023-02-20T07:50:32;100217.14;;;3.71;100.00
68077;BME280;54866;53.458;14.540;2023-02-20T07:53:02;100210.55;;;3.74;100.00
68077;BME280;54866;53.458;14.540;2023-02-20T07:55:31;100214.16;;;3.77;100.00
68077;BME280;54866;53.458;14.540;2023-02-20T07:58:01;100211.10;;;3.82;100.00
68077;BME280;54866;53.458;14.540;2023-02-20T08:00:30;100195.95;;;3.88;100.00
68077;BME280;54866;53.458;14.540;2023-02-20T08:03:00;100190.89;;;3.94;100.00
68077;BME280;54866;53.458;14.540;2023-02-20T08:05:30;100202.08;;;4.02;100.00
68077;BME280;54866;53.458;14.540;2023-02-20T08:07:59;100197.22;;;4.08;100.00
68077;BME280;54866;53.458;14.540;2023-02-20T08:10:29;100185.50;;;4.14;100.00
68077;BME280;54866;53.458;14.540;2023-02-20T08:12:58;100161.96;;;4.20;100.00
68077;BME280;54866;53.458;14.540;2023-02-20T08:15:29;100160.67;;;4.27;100.00
68077;BME280;54866;53.458;14.540;2023-02-20T08:17:59;100148.58;;;4.34;100.00
68077;BME280;54866;53.458;14.540;2023-02-20T08:20:28;100156.28;;;4.39;100.00
68077;BME280;54866;53.458;14.540;2023-02-20T08:22:58;100164.95;;;4.45;100.00
68077;BME280;54866;53.458;14.540;2023-02-20T08:25:28;100158.02;;;4.50;100.00
68077;BME280;54866;53.458;14.540;2023-02-20T08:27:59;100151.71;;;4.53;100.00
68077;BME280;54866;53.458;14.540;2023-02-20T08:30:29;100147.67;;;4.57;100.00
68077;BME280;54866;53.458;14.540;2023-02-20T08:32:58;100135.63;;;4.60;100.00
68077;BME280;54866;53.458;14.540;2023-02-20T08:35:29;100133.88;;;4.63;100.00
68077;BME280;54866;53.458;14.540;2023-02-20T08:37:59;100131.21;;;4.66;100.00
68077;BME280;54866;53.458;14.540;2023-02-20T08:40:28;100114.48;;;4.69;100.00
68077;BME280;54866;53.458;14.540;2023-02-20T08:42:58;100110.31;;;4.71;100.00
68077;BME280;54866;53.458;14.540;2023-02-20T08:45:27;100111.94;;;4.78;100.00
68077;BME280;54866;53.458;14.540;2023-02-20T08:47:58;100100.88;;;4.85;100.00
68077;BME280;54866;53.458;14.540;2023-02-20T08:50:29;100098.97;;;4.93;100.00
68077;BME280;54866;53.458;14.540;2023-02-20T08:52:58;100086.77;;;5.01;100.00
68077;BME280;54866;53.458;14.540;2023-02-20T08:55:29;100091.56;;;5.05;100.00
68077;BME280;54866;53.458;14.540;2023-02-20T08:57:58;100086.70;;;5.10;100.00
68077;BME280;54866;53.458;14.540;2023-02-20T09:00:28;100095.64;;;5.14;100.00
68077;BME280;54866;53.458;14.540;2023-02-20T09:02:58;100086.73;;;5.17;100.00
68077;BME280;54866;53.458;14.540;2023-02-20T09:05:28;100082.27;;;5.21;100.00
68077;BME280;54866;53.458;14.540;2023-02-20T09:07:57;100081.02;;;5.27;100.00
68077;BME280;54866;53.458;14.540;2023-02-20T09:10:27;100081.86;;;5.33;100.00
68077;BME280;54866;53.458;14.540;2023-02-20T09:12:57;100074.81;;;5.36;100.00
68077;BME280;54866;53.458;14.540;2023-02-20T09:15:27;100066.82;;;5.38;100.00
68077;BME280;54866;53.458;14.540;2023-02-20T09:17:57;100043.67;;;5.42;100.00
68077;BME280;54866;53.458;14.540;2023-02-20T09:20:26;100052.44;;;5.44;100.00
68077;BME280;54866;53.458;14.540;2023-02-20T09:22:58;100042.50;;;5.47;100.00
68077;BME280;54866;53.458;14.540;2023-02-20T09:25:28;100038.28;;;5.50;100.00
68077;BME280;54866;53.458;14.540;2023-02-20T09:27:57;100034.48;;;5.52;100.00
68077;BME280;54866;53.458;14.540;2023-02-20T09:30:27;100032.02;;;5.54;99.95
68077;BME280;54866;53.458;14.540;2023-02-20T09:32:57;100018.14;;;5.58;99.86
68077;BME280;54866;53.458;14.540;2023-02-20T09:35:29;100017.92;;;5.61;99.88
68077;BME280;54866;53.458;14.540;2023-02-20T09:37:59;100008.14;;;5.64;99.64
68077;BME280;54866;53.458;14.540;2023-02-20T09:40:30;100002.45;;;5.67;99.21
68077;BME280;54866;53.458;14.540;2023-02-20T09:43:19;99994.27;;;5.75;98.49
68077;BME280;54866;53.458;14.540;2023-02-20T09:45:58;99993.61;;;5.84;98.05
68077;BME280;54866;53.458;14.540;2023-02-20T09:48:40;99989.46;;;5.92;97.63
68077;BME280;54866;53.458;14.540;2023-02-20T09:51:15;99993.64;;;6.01;96.75
68077;BME280;54866;53.458;14.540;2023-02-20T09:53:53;99969.33;;;6.09;95.88
68077;BME280;54866;53.458;14.540;2023-02-20T09:56:26;99984.71;;;6.24;95.13
68077;BME280;54866;53.458;14.540;2023-02-20T09:59:01;99976.38;;;6.28;95.01
68077;BME280;54866;53.458;14.540;2023-02-20T10:01:36;99984.50;;;6.37;94.76
68077;BME280;54866;53.458;14.540;2023-02-20T10:04:10;99981.79;;;6.40;94.30
68077;BME280;54866;53.458;14.540;2023-02-20T10:06:42;99973.36;;;6.38;94.30
68077;BME280;54866;53.458;14.540;2023-02-20T10:09:15;99975.78;;;6.39;94.23
68077;BME280;54866;53.458;14.540;2023-02-20T10:11:57;99982.60;;;6.34;94.35
68077;BME280;54866;53.458;14.540;2023-02-20T10:14:43;99991.38;;;6.31;94.84
68077;BME280;54866;53.458;14.540;2023-02-20T10:17:25;99994.48;;;6.29;95.24
68077;BME280;54866;53.458;14.540;2023-02-20T10:20:02;99996.55;;;6.27;95.44
68077;BME280;54866;53.458;14.540;2023-02-20T10:22:41;99999.07;;;6.28;95.57
68077;BME280;54866;53.458;14.540;2023-02-20T10:25:22;99995.09;;;6.30;95.37
68077;BME280;54866;53.458;14.540;2023-02-20T10:27:55;99987.13;;;6.31;95.28
68077;BME280;54866;53.458;14.540;2023-02-20T10:30:31;99989.17;;;6.35;95.27
68077;BME280;54866;53.458;14.540;2023-02-20T10:33:09;99974.70;;;6.39;94.89
68077;BME280;54866;53.458;14.540;2023-02-20T10:35:46;99973.34;;;6.44;94.78
68077;BME280;54866;53.458;14.540;2023-02-20T10:38:22;99959.77;;;6.47;94.72
68077;BME280;54866;53.458;14.540;2023-02-20T10:40:59;99970.14;;;6.54;94.71
68077;BME280;54866;53.458;14.540;2023-02-20T10:43:36;99957.01;;;6.58;95.07
68077;BME280;54866;53.458;14.540;2023-02-20T10:46:11;99956.48;;;6.65;94.61
68077;BME280;54866;53.458;14.540;2023-02-20T10:48:44;99945.66;;;6.74;94.44
68077;BME280;54866;53.458;14.540;2023-02-20T10:51:18;99950.73;;;6.79;94.22
68077;BME280;54866;53.458;14.540;2023-02-20T10:53:57;99957.41;;;6.86;93.71
68077;BME280;54866;53.458;14.540;2023-02-20T10:56:31;99961.17;;;6.89;93.87
68077;BME280;54866;53.458;14.540;2023-02-20T10:59:09;99960.78;;;6.90;94.17
68077;BME280;54866;53.458;14.540;2023-02-20T11:01:48;99956.95;;;6.92;93.99
68077;BME280;54866;53.458;14.540;2023-02-20T11:04:21;99961.36;;;6.94;93.71
68077;BME280;54866;53.458;14.540;2023-02-20T11:06:56;99952.16;;;6.96;93.74
68077;BME280;54866;53.458;14.540;2023-02-20T11:09:27;99962.04;;;6.97;93.65
68077;BME280;54866;53.458;14.540;2023-02-20T11:11:57;99956.98;;;6.99;93.58
68077;BME280;54866;53.458;14.540;2023-02-20T11:14:33;99949.85;;;7.01;93.59
68077;BME280;54866;53.458;14.540;2023-02-20T11:17:06;99942.40;;;7.02;93.37
68077;BME280;54866;53.458;14.540;2023-02-20T11:19:41;99937.00;;;7.02;93.84
68077;BME280;54866;53.458;14.540;2023-02-20T11:22:09;99953.43;;;7.02;94.04
68077;BME280;54866;53.458;14.540;2023-02-20T11:24:40;99949.83;;;7.01;94.00
68077;BME280;54866;53.458;14.540;2023-02-20T11:27:13;99944.27;;;7.00;94.70
68077;BME280;54866;53.458;14.540;2023-02-20T11:29:49;99927.84;;;6.98;94.69
68077;BME280;54866;53.458;14.540;2023-02-20T11:32:36;99920.38;;;6.97;95.28
68077;BME280;54866;53.458;14.540;2023-02-20T11:35:27;99921.58;;;6.92;95.48
68077;BME280;54866;53.458;14.540;2023-02-20T11:38:27;99928.73;;;6.92;96.01
68077;BME280;54866;53.458;14.540;2023-02-20T11:41:11;99919.41;;;6.91;96.49
68077;BME280;54866;53.458;14.540;2023-02-20T11:43:42;99930.13;;;6.88;97.42
68077;BME280;54866;53.458;14.540;2023-02-20T11:46:17;99911.38;;;6.86;97.97
68077;BME280;54866;53.458;14.540;2023-02-20T11:49:02;99936.80;;;6.85;98.51
68077;BME280;54866;53.458;14.540;2023-02-20T11:51:35;99937.04;;;6.82;99.07
68077;BME280;54866;53.458;14.540;2023-02-20T11:54:12;99927.80;;;6.80;99.62
68077;BME280;54866;53.458;14.540;2023-02-20T11:56:56;99922.11;;;6.78;99.96
68077;BME280;54866;53.458;14.540;2023-02-20T11:59:30;99928.96;;;6.78;100.00
68077;BME280;54866;53.458;14.540;2023-02-20T12:02:26;99937.84;;;6.76;100.00
68077;BME280;54866;53.458;14.540;2023-02-20T12:05:05;99932.64;;;6.73;100.00
68077;BME280;54866;53.458;14.540;2023-02-20T12:07:38;99930.30;;;6.72;100.00
68077;BME280;54866;53.458;14.540;2023-02-20T12:10:30;99925.05;;;6.69;100.00
68077;BME280;54866;53.458;14.540;2023-02-20T12:13:02;99916.71;;;6.66;100.00
68077;BME280;54866;53.458;14.540;2023-02-20T12:15:33;99919.41;;;6.65;100.00
68077;BME280;54866;53.458;14.540;2023-02-20T12:18:24;99908.73;;;6.63;100.00
68077;BME280;54866;53.458;14.540;2023-02-20T12:21:00;99904.10;;;6.62;100.00
68077;BME280;54866;53.458;14.540;2023-02-20T12:23:41;99902.08;;;6.60;100.00
68077;BME280;54866;53.458;14.540;2023-02-20T12:26:24;99892.30;;;6.60;100.00
68077;BME280;54866;53.458;14.540;2023-02-20T12:29:08;99890.98;;;6.61;100.00
68077;BME280;54866;53.458;14.540;2023-02-20T12:31:49;99911.59;;;6.62;100.00
68077;BME280;54866;53.458;14.540;2023-02-20T12:34:33;99902.96;;;6.63;100.00
68077;BME280;54866;53.458;14.540;2023-02-20T12:37:12;99909.33;;;6.64;100.00
68077;BME280;54866;53.458;14.540;2023-02-20T12:39:53;99906.02;;;6.66;100.00
68077;BME280;54866;53.458;14.540;2023-02-20T12:42:31;99899.77;;;6.70;100.00
68077;BME280;54866;53.458;14.540;2023-02-20T12:45:15;99895.79;;;6.72;100.00
68077;BME280;54866;53.458;14.540;2023-02-20T12:47:46;99901.33;;;6.75;100.00
68077;BME280;54866;53.458;14.540;2023-02-20T12:50:35;99895.08;;;6.77;100.00
68077;BME280;54866;53.458;14.540;2023-02-20T12:53:12;99903.09;;;6.80;100.00
68077;BME280;54866;53.458;14.540;2023-02-20T12:55:53;99902.35;;;6.83;100.00
68077;BME280;54866;53.458;14.540;2023-02-20T12:58:34;99886.66;;;6.86;100.00
68077;BME280;54866;53.458;14.540;2023-02-20T13:01:11;99899.13;;;6.90;100.00
68077;BME280;54866;53.458;14.540;2023-02-20T13:03:48;99900.55;;;6.92;100.00
68077;BME280;54866;53.458;14.540;2023-02-20T13:06:26;99893.75;;;6.97;100.00
68077;BME280;54866;53.458;14.540;2023-02-20T13:09:04;99898.86;;;7.01;100.00
68077;BME280;54866;53.458;14.540;2023-02-20T13:11:37;99886.55;;;7.04;100.00
68077;BME280;54866;53.458;14.540;2023-02-20T13:14:23;99872.42;;;7.05;100.00
68077;BME280;54866;53.458;14.540;2023-02-20T13:16:57;99880.85;;;7.07;100.00
68077;BME280;54866;53.458;14.540;2023-02-20T13:19:37;99890.98;;;7.10;100.00
68077;BME280;54866;53.458;14.540;2023-02-20T13:22:08;99895.25;;;7.09;100.00
68077;BME280;54866;53.458;14.540;2023-02-20T13:24:39;99886.90;;;7.08;100.00
68077;BME280;54866;53.458;14.540;2023-02-20T13:27:10;99893.89;;;7.08;100.00
68077;BME280;54866;53.458;14.540;2023-02-20T13:29:59;99904.11;;;7.08;100.00
68077;BME280;54866;53.458;14.540;2023-02-20T13:32:32;99890.19;;;7.09;100.00